createdAt,value
2022-12-31T00:00:07.849Z,99758.19
2022-12-31T00:02:36.122Z,99758.41
2022-12-31T00:05:04.313Z,99758.72
2022-12-31T00:09:57.397Z,99745.44
2022-12-31T00:12:24.686Z,99745.38
2022-12-31T00:14:51.351Z,99752.44
2022-12-31T00:17:17.753Z,99767.19
2022-12-31T00:19:44.211Z,99757.53
2022-12-31T00:22:10.938Z,99759.13
2022-12-31T00:24:37.484Z,99755.25
2022-12-31T00:27:04.012Z,99754.19
2022-12-31T00:29:30.612Z,99748.84
2022-12-31T00:31:57.130Z,99748.44
2022-12-31T00:34:23.622Z,99756.44
2022-12-31T00:36:50.007Z,99757.97
2022-12-31T00:39:16.617Z,99750.88
2022-12-31T00:41:44.007Z,99752.78
2022-12-31T00:44:12.529Z,99756.78
2022-12-31T00:49:05.242Z,99760.28
2022-12-31T00:51:31.856Z,99758.63
2022-12-31T00:53:58.507Z,99761.88
2022-12-31T00:56:27.818Z,99756.34
2022-12-31T00:58:55.122Z,99756.44
2022-12-31T01:01:30.924Z,99771.66
2022-12-31T01:04:06.715Z,99772.53
2022-12-31T01:06:33.377Z,99771.41
2022-12-31T01:09:00.270Z,99760.34
2022-12-31T01:11:29.348Z,99760.72
2022-12-31T01:14:00.591Z,99771.63
2022-12-31T01:16:37.219Z,99777.63
2022-12-31T01:19:06.785Z,99766.25
2022-12-31T01:21:34.630Z,99771.28
2022-12-31T01:24:01.096Z,99764.59
2022-12-31T01:26:28.184Z,99770.66
2022-12-31T01:28:54.675Z,99763.50
2022-12-31T01:31:22.977Z,99786.56
2022-12-31T01:33:51.301Z,99780.06
2022-12-31T01:36:25.651Z,99791.31
2022-12-31T01:38:54.571Z,99793.63
2022-12-31T01:41:28.896Z,99788.56
2022-12-31T01:43:58.683Z,99790.44
2022-12-31T01:46:33.051Z,99788.56
2022-12-31T01:49:23.759Z,99796.84
2022-12-31T01:51:57.942Z,99810.03
2022-12-31T01:54:27.137Z,99781.22
2022-12-31T01:56:56.184Z,99799.06
2022-12-31T01:59:25.891Z,99809.06
2022-12-31T02:01:52.751Z,99805.13
2022-12-31T02:04:22.815Z,99808.06
2022-12-31T02:07:03.127Z,99809.34
2022-12-31T02:09:31.055Z,99828.75
2022-12-31T02:11:57.544Z,99812.34
2022-12-31T02:14:28.544Z,99830.53
2022-12-31T02:17:01.096Z,99822.31
2022-12-31T02:19:56.543Z,99830.38
2022-12-31T02:22:48.733Z,99812.31
2022-12-31T02:25:49.363Z,99819.94
2022-12-31T02:28:20.538Z,99826.19
2022-12-31T02:30:53.163Z,99808.38
2022-12-31T02:33:35.430Z,99801.09
2022-12-31T02:36:09.603Z,99812.91
2022-12-31T02:38:40.766Z,99810.69
2022-12-31T02:41:12.898Z,99824.63
2022-12-31T02:43:46.637Z,99819.50
2022-12-31T02:46:27.972Z,99819.75
2022-12-31T02:49:20.352Z,99829.31
2022-12-31T02:52:14.640Z,99825.56
2022-12-31T02:55:01.702Z,99837.78
2022-12-31T02:57:37.909Z,99828.34
2022-12-31T03:00:27.235Z,99820.13
2022-12-31T03:02:56.081Z,99826.75
2022-12-31T03:05:27.426Z,99827.81
2022-12-31T03:07:54.239Z,99829.25
2022-12-31T03:10:21.133Z,99842.19
2022-12-31T03:12:48.844Z,99839.22
2022-12-31T03:15:32.679Z,99835.31
2022-12-31T03:18:16.857Z,99842.63
2022-12-31T03:21:07.135Z,99827.19
2022-12-31T03:23:37.104Z,99834.72
2022-12-31T03:26:10.959Z,99839.09
2022-12-31T03:28:43.174Z,99839.22
2022-12-31T03:31:11.309Z,99831.84
2022-12-31T03:33:40.498Z,99847.59
2022-12-31T03:36:10.506Z,99841.97
2022-12-31T03:38:36.929Z,99843.06
2022-12-31T03:41:03.648Z,99847.50
2022-12-31T03:43:30.225Z,99863.16
2022-12-31T03:45:59.662Z,99864.19
2022-12-31T03:48:26.675Z,99857.69
2022-12-31T03:50:53.240Z,99871.34
2022-12-31T03:53:20.017Z,99873.75
2022-12-31T03:55:51.943Z,99871.19
2022-12-31T03:58:18.476Z,99888.06
2022-12-31T04:00:44.996Z,99866.47
2022-12-31T04:03:11.672Z,99854.81
2022-12-31T04:05:38.313Z,99870.47
2022-12-31T04:08:05.053Z,99870.28
2022-12-31T04:10:31.559Z,99858.69
2022-12-31T04:13:00.229Z,99841.09
2022-12-31T04:15:28.517Z,99841.63
2022-12-31T04:17:55.147Z,99836.50
2022-12-31T04:20:21.576Z,99832.31
2022-12-31T04:22:47.937Z,99843.50
2022-12-31T04:25:14.531Z,99843.66
2022-12-31T04:27:41.644Z,99847.72
2022-12-31T04:30:09.560Z,99856.47
2022-12-31T04:32:37.145Z,99853.50
2022-12-31T04:35:03.831Z,99845.81
2022-12-31T04:37:30.572Z,99866.34
2022-12-31T04:40:03.559Z,99860.69
2022-12-31T04:42:32.328Z,99867.34
2022-12-31T04:44:58.983Z,99870.25
2022-12-31T04:47:25.784Z,99893.69
2022-12-31T04:49:52.243Z,99877.69
2022-12-31T04:52:19.027Z,99899.63
2022-12-31T04:54:45.648Z,99898.13
2022-12-31T04:57:12.314Z,99879.25
2022-12-31T04:59:39.096Z,99871.81
2022-12-31T05:02:05.859Z,99894.34
2022-12-31T05:04:33.056Z,99901.88
2022-12-31T05:06:59.474Z,99912.34
2022-12-31T05:09:27.453Z,99936.38
2022-12-31T05:11:54.230Z,99909.94
2022-12-31T06:26:06.852Z,99996.59
2022-12-31T06:28:52.073Z,100018.25
2022-12-31T06:31:37.333Z,100002.25
2022-12-31T06:34:22.297Z,99995.09
2022-12-31T06:37:06.941Z,100014.09
2022-12-31T06:39:51.711Z,100002.91
2022-12-31T06:42:36.584Z,100019.31
2022-12-31T06:45:23.377Z,100005.38
2022-12-31T06:48:13.679Z,100021.03
2022-12-31T06:51:16.770Z,100017.84
2022-12-31T06:54:02.076Z,100014.91
2022-12-31T06:56:47.347Z,100007.34
2022-12-31T06:59:34.116Z,100016.19
2022-12-31T07:02:43.505Z,100012.44
2022-12-31T07:05:45.433Z,100025.56
2022-12-31T07:08:44.679Z,100032.78
2022-12-31T07:11:52.629Z,100053.97
2022-12-31T07:14:46.362Z,100051.97
2022-12-31T07:17:53.529Z,100034.06
2022-12-31T07:20:38.698Z,100034.63
2022-12-31T07:23:23.867Z,100042.56
2022-12-31T07:26:18.173Z,100023.16
2022-12-31T07:29:15.267Z,100031.69
2022-12-31T07:32:19.321Z,100046.19
2022-12-31T07:35:22.276Z,100053.47
2022-12-31T07:38:16.476Z,100053.78
2022-12-31T07:41:13.678Z,100050.75
2022-12-31T07:44:07.580Z,100059.81
2022-12-31T07:46:58.653Z,100042.88
2022-12-31T07:49:44.469Z,100032.59
2022-12-31T07:52:29.840Z,100039.25
2022-12-31T07:55:15.366Z,100052.38
2022-12-31T07:58:17.977Z,100056.53
2022-12-31T08:01:03.721Z,100059.59
2022-12-31T08:03:57.356Z,100050.88
2022-12-31T08:07:19.047Z,100058.53
2022-12-31T08:10:18.224Z,100061.22
2022-12-31T08:13:08.607Z,100072.19
2022-12-31T08:15:54.137Z,100073.06
2022-12-31T08:18:39.257Z,100073.88
2022-12-31T08:22:11.907Z,100082.75
2022-12-31T08:25:05.770Z,100082.75
2022-12-31T08:27:59.725Z,100090.47
2022-12-31T08:31:16.582Z,100095.34
2022-12-31T08:34:06.180Z,100090.09
2022-12-31T08:37:09.337Z,100090.22
2022-12-31T08:40:00.414Z,100090.50
2022-12-31T08:43:04.022Z,100105.09
2022-12-31T08:45:51.521Z,100126.34
2022-12-31T08:48:42.298Z,100090.97
2022-12-31T08:51:27.516Z,100118.50
2022-12-31T08:54:13.099Z,100130.88
2022-12-31T08:57:13.585Z,100124.56
2022-12-31T09:00:15.259Z,100149.28
2022-12-31T09:03:09.518Z,100117.97
2022-12-31T09:06:09.819Z,100144.59
2022-12-31T09:08:58.561Z,100123.41
2022-12-31T09:12:17.375Z,100130.25
2022-12-31T09:15:11.470Z,100125.63
2022-12-31T09:17:56.678Z,100115.88
2022-12-31T09:20:43.859Z,100133.97
2022-12-31T09:23:33.147Z,100141.25
2022-12-31T09:26:29.738Z,100137.00
2022-12-31T09:29:23.630Z,100131.25
2022-12-31T09:32:34.549Z,100137.28
2022-12-31T09:35:41.624Z,100141.41
2022-12-31T09:38:41.124Z,100130.91
2022-12-31T09:41:54.760Z,100145.97
2022-12-31T09:44:58.636Z,100136.94
2022-12-31T09:47:46.593Z,100156.59
2022-12-31T09:50:52.687Z,100152.25
2022-12-31T09:53:56.231Z,100181.38
2022-12-31T09:57:02.563Z,100142.28
2022-12-31T10:00:32.346Z,100167.31
2022-12-31T10:03:54.933Z,100184.94
2022-12-31T10:06:45.787Z,100187.94
2022-12-31T10:09:37.186Z,100189.69
2022-12-31T10:12:46.497Z,100204.16
2022-12-31T10:15:38.221Z,100192.47
2022-12-31T10:18:38.389Z,100196.06
2022-12-31T10:21:35.462Z,100211.41
2022-12-31T10:24:42.138Z,100200.31
2022-12-31T10:27:51.641Z,100203.84
2022-12-31T10:30:40.601Z,100207.09
2022-12-31T10:33:47.877Z,100198.72
2022-12-31T10:36:53.105Z,100207.84
2022-12-31T10:39:41.034Z,100206.16
2022-12-31T10:42:50.327Z,100212.75
2022-12-31T10:45:46.309Z,100210.09
2022-12-31T10:48:47.724Z,100211.47
2022-12-31T10:51:57.152Z,100213.03
2022-12-31T10:55:06.696Z,100215.13
2022-12-31T10:58:25.554Z,100220.56
2022-12-31T11:01:26.501Z,100220.56
2022-12-31T11:04:38.569Z,100216.63
2022-12-31T11:07:42.190Z,100229.78
2022-12-31T11:10:36.046Z,100240.94
2022-12-31T11:14:10.862Z,100220.88
2022-12-31T11:17:14.258Z,100233.06
2022-12-31T11:20:44.359Z,100227.53
2022-12-31T11:24:03.409Z,100230.41
2022-12-31T11:27:17.346Z,100239.94
2022-12-31T11:30:29.937Z,100226.69
2022-12-31T11:33:51.993Z,100249.00
2022-12-31T11:36:55.440Z,100245.47
2022-12-31T11:39:49.693Z,100245.22
2022-12-31T11:42:58.492Z,100239.19
2022-12-31T11:45:55.571Z,100237.94
2022-12-31T11:49:03.650Z,100231.84
2022-12-31T11:51:57.561Z,100211.88
2022-12-31T11:55:01.187Z,100216.84
2022-12-31T11:57:50.715Z,100224.56
2022-12-31T12:00:35.932Z,100219.56
2022-12-31T12:03:21.318Z,100216.59
2022-12-31T12:06:07.513Z,100204.84
2022-12-31T12:08:54.634Z,100220.06
2022-12-31T12:11:40.796Z,100198.22
2022-12-31T12:14:45.840Z,100223.50
2022-12-31T12:17:34.223Z,100220.31
2022-12-31T12:20:26.499Z,100208.38
2022-12-31T12:23:24.262Z,100205.19
2022-12-31T12:26:27.688Z,100208.06
2022-12-31T12:29:22.902Z,100194.00
2022-12-31T12:32:17.257Z,100183.84
2022-12-31T12:35:13.923Z,100183.94
2022-12-31T12:38:01.715Z,100175.47
2022-12-31T12:40:59.317Z,100160.06
2022-12-31T12:43:44.157Z,100161.66
2022-12-31T12:46:47.797Z,100161.41
2022-12-31T12:49:42.565Z,100154.13
2022-12-31T12:52:42.539Z,100152.09
2022-12-31T12:55:30.538Z,100177.47
2022-12-31T12:58:44.826Z,100176.84
2022-12-31T13:01:41.567Z,100185.34
2022-12-31T13:04:51.130Z,100185.00
2022-12-31T13:07:39.064Z,100194.47
2022-12-31T13:10:43.155Z,100206.56
2022-12-31T13:13:37.919Z,100203.09
2022-12-31T13:16:39.413Z,100173.78
2022-12-31T13:19:46.644Z,100194.84
2022-12-31T13:22:40.163Z,100205.31
2022-12-31T13:25:46.784Z,100199.22
2022-12-31T13:28:33.365Z,100192.13
2022-12-31T13:31:27.332Z,100204.28
2022-12-31T13:34:18.577Z,100214.34
2022-12-31T13:37:18.672Z,100216.13
2022-12-31T13:40:27.305Z,100214.81
2022-12-31T13:43:32.732Z,100198.19
2022-12-31T13:46:39.699Z,100208.97
2022-12-31T13:49:32.125Z,100206.84
2022-12-31T13:52:42.141Z,100196.94
2022-12-31T13:55:31.887Z,100194.06
2022-12-31T13:58:39.702Z,100198.75
2022-12-31T14:01:41.149Z,100199.81
2022-12-31T14:04:39.220Z,100181.66
2022-12-31T14:07:36.612Z,100191.13
2022-12-31T14:10:45.131Z,100191.28
2022-12-31T14:13:39.854Z,100182.81
2022-12-31T14:16:32.918Z,100188.91
2022-12-31T14:19:41.554Z,100177.97
2022-12-31T14:22:33.797Z,100185.06
2022-12-31T14:25:30.991Z,100178.34
2022-12-31T14:28:19.490Z,100188.81
2022-12-31T14:31:26.282Z,100192.44
2022-12-31T14:34:26.175Z,100197.66
2022-12-31T14:37:18.257Z,100204.59
2022-12-31T14:40:22.240Z,100188.06
2022-12-31T14:43:13.465Z,100182.03
2022-12-31T14:46:35.373Z,100182.97
2022-12-31T14:49:37.846Z,100163.75
2022-12-31T14:52:28.529Z,100176.81
2022-12-31T14:55:14.888Z,100169.75
2022-12-31T14:58:26.898Z,100170.22
2022-12-31T15:01:22.184Z,100176.56
2022-12-31T15:04:14.575Z,100182.78
2022-12-31T15:07:20.228Z,100197.19
2022-12-31T15:10:20.375Z,100177.94
2022-12-31T15:13:13.797Z,100180.41
2022-12-31T15:16:22.496Z,100188.59
2022-12-31T15:19:19.387Z,100183.84
2022-12-31T15:22:37.224Z,100194.50
2022-12-31T15:25:41.147Z,100194.34
2022-12-31T15:28:34.862Z,100196.84
2022-12-31T15:31:20.805Z,100206.31
2022-12-31T15:34:23.415Z,100210.06
2022-12-31T15:37:30.569Z,100211.16
2022-12-31T15:40:15.473Z,100208.78
2022-12-31T15:43:23.502Z,100234.88
2022-12-31T15:46:17.101Z,100213.78
2022-12-31T15:49:18.081Z,100229.44
2022-12-31T15:52:13.257Z,100231.50
2022-12-31T15:54:59.049Z,100237.38
2022-12-31T15:57:44.347Z,100221.13
2022-12-31T16:00:46.896Z,100226.91
2022-12-31T16:03:32.420Z,100241.50
2022-12-31T16:06:18.086Z,100243.91
2022-12-31T16:09:06.956Z,100243.63
2022-12-31T16:11:56.126Z,100245.00
2022-12-31T16:14:49.242Z,100240.16
2022-12-31T16:17:36.774Z,100251.47
2022-12-31T16:20:25.730Z,100248.03
2022-12-31T16:23:21.982Z,100253.66
2022-12-31T16:26:10.926Z,100250.13
2022-12-31T16:29:00.378Z,100248.53
2022-12-31T16:31:49.416Z,100261.47
2022-12-31T16:34:37.872Z,100258.03
2022-12-31T16:37:23.494Z,100256.94
2022-12-31T16:40:19.791Z,100258.91
2022-12-31T16:43:05.048Z,100244.84
2022-12-31T16:45:50.020Z,100256.41
2022-12-31T16:48:36.102Z,100246.41
2022-12-31T16:51:24.392Z,100238.16
2022-12-31T16:54:20.731Z,100249.31
2022-12-31T16:57:06.338Z,100242.13
2022-12-31T17:00:00.540Z,100249.44
2022-12-31T17:03:03.601Z,100250.16
2022-12-31T17:06:13.649Z,100246.00
2022-12-31T17:08:59.483Z,100254.97
2022-12-31T17:12:08.060Z,100246.59
2022-12-31T17:14:53.104Z,100245.31
2022-12-31T17:17:37.982Z,100249.75
2022-12-31T17:20:32.625Z,100249.38
2022-12-31T17:23:31.433Z,100248.88
2022-12-31T17:26:24.833Z,100245.22
2022-12-31T17:29:25.927Z,100232.78
2022-12-31T17:32:35.390Z,100246.91
2022-12-31T17:35:31.099Z,100247.72
2022-12-31T17:38:22.140Z,100249.81
2022-12-31T17:41:07.012Z,100251.09
2022-12-31T17:43:55.574Z,100259.88
2022-12-31T17:46:42.157Z,100248.66
2022-12-31T17:49:30.748Z,100241.91
2022-12-31T17:52:16.238Z,100231.59
2022-12-31T17:55:01.247Z,100239.53
2022-12-31T17:57:51.548Z,100222.69
2022-12-31T18:00:36.830Z,100240.66
2022-12-31T18:03:21.774Z,100240.78
2022-12-31T18:06:16.094Z,100232.28
2022-12-31T18:09:01.880Z,100228.28
2022-12-31T18:11:46.781Z,100229.59
2022-12-31T18:14:31.992Z,100225.13
2022-12-31T18:17:16.782Z,100238.34
2022-12-31T18:20:06.183Z,100227.09
2022-12-31T18:22:51.732Z,100220.72
2022-12-31T18:28:23.594Z,100227.09
2022-12-31T18:31:24.012Z,100238.38
2022-12-31T18:34:12.409Z,100229.88
2022-12-31T18:36:57.751Z,100235.91
2022-12-31T18:39:42.782Z,100221.50
2022-12-31T18:42:28.279Z,100224.34
2022-12-31T18:45:19.536Z,100235.78
2022-12-31T18:48:04.671Z,100235.84
2022-12-31T18:50:49.503Z,100234.16
2022-12-31T18:53:34.252Z,100242.25
2022-12-31T18:56:20.628Z,100226.72
2022-12-31T18:59:05.707Z,100249.22
2022-12-31T19:01:50.616Z,100231.56
2022-12-31T19:04:35.789Z,100232.75
2022-12-31T19:07:24.386Z,100235.91
2022-12-31T19:10:13.341Z,100245.53
2022-12-31T19:12:58.250Z,100232.72
2022-12-31T19:15:47.232Z,100251.09
2022-12-31T19:18:32.155Z,100242.72
2022-12-31T19:21:22.495Z,100237.16
2022-12-31T19:24:12.887Z,100238.34
2022-12-31T19:26:57.649Z,100236.81
2022-12-31T19:29:42.443Z,100235.97
2022-12-31T19:32:27.237Z,100227.91
2022-12-31T19:35:13.558Z,100233.88
2022-12-31T19:37:58.407Z,100233.56
2022-12-31T19:40:43.591Z,100236.78
2022-12-31T19:43:28.389Z,100231.91
2022-12-31T19:46:14.375Z,100236.75
2022-12-31T19:48:59.060Z,100254.00
2022-12-31T19:51:43.840Z,100241.09
2022-12-31T19:54:28.826Z,100249.13
2022-12-31T19:57:13.698Z,100258.41
2022-12-31T19:59:58.503Z,100253.59
2022-12-31T20:02:45.556Z,100259.97
2022-12-31T20:05:30.813Z,100247.06
2022-12-31T20:08:17.128Z,100245.44
2022-12-31T20:11:17.319Z,100257.94
2022-12-31T20:14:02.462Z,100261.88
2022-12-31T20:16:47.237Z,100263.84
2022-12-31T20:19:32.079Z,100267.50
2022-12-31T20:22:16.912Z,100259.56
2022-12-31T20:25:01.882Z,100255.84
2022-12-31T20:27:47.001Z,100282.34
2022-12-31T20:30:31.825Z,100263.84
2022-12-31T20:33:19.164Z,100267.91
2022-12-31T20:36:08.975Z,100284.72
2022-12-31T20:38:54.060Z,100261.50
2022-12-31T20:41:38.846Z,100293.25
2022-12-31T20:44:23.600Z,100295.59
2022-12-31T20:47:08.510Z,100302.38
2022-12-31T20:50:11.168Z,100302.38
2022-12-31T20:52:57.769Z,100302.38
2022-12-31T20:55:42.619Z,100297.72
2022-12-31T20:58:27.336Z,100284.63
2022-12-31T21:01:12.815Z,100293.06
2022-12-31T21:04:05.766Z,100284.13
2022-12-31T21:06:52.265Z,100300.50
2022-12-31T21:09:37.213Z,100307.09
2022-12-31T21:12:40.739Z,100323.97
2022-12-31T21:15:25.905Z,100301.38
2022-12-31T21:18:11.243Z,100321.47
2022-12-31T21:20:56.092Z,100314.28
2022-12-31T21:23:41.064Z,100313.94
2022-12-31T21:26:26.352Z,100343.16
2022-12-31T21:29:11.570Z,100323.94
2022-12-31T21:31:56.485Z,100341.47
2022-12-31T21:34:41.647Z,100329.47
2022-12-31T21:37:26.606Z,100353.44
2022-12-31T21:40:32.312Z,100354.16
2022-12-31T21:43:17.221Z,100369.44
2022-12-31T21:46:06.302Z,100365.41
2022-12-31T21:48:58.661Z,100363.75
2022-12-31T21:52:02.232Z,100385.66
2022-12-31T21:55:06.158Z,100374.44
2022-12-31T21:58:24.812Z,100378.50
2022-12-31T22:01:16.346Z,100399.66
2022-12-31T22:04:01.435Z,100386.53
2022-12-31T22:06:46.611Z,100386.53
2022-12-31T22:09:31.316Z,100384.97
2022-12-31T22:12:16.302Z,100396.16
2022-12-31T22:15:15.036Z,100400.19
2022-12-31T22:18:00.926Z,100413.78
2022-12-31T22:20:45.727Z,100403.00
2022-12-31T22:23:36.005Z,100397.34
2022-12-31T22:26:24.496Z,100377.75
2022-12-31T22:29:09.541Z,100395.41
2022-12-31T22:31:59.446Z,100395.38
2022-12-31T22:34:46.129Z,100397.78
2022-12-31T22:37:56.881Z,100402.59
2022-12-31T22:40:36.703Z,100384.94
2022-12-31T22:43:21.472Z,100407.00
2022-12-31T22:46:10.500Z,100396.19
2022-12-31T22:48:58.095Z,100396.16
2022-12-31T22:51:56.901Z,100399.75
2022-12-31T22:54:43.768Z,100402.59
2022-12-31T22:57:28.639Z,100402.53
2022-12-31T23:00:14.058Z,100395.34
2022-12-31T23:02:59.313Z,100400.97
2022-12-31T23:05:44.913Z,100393.75
2022-12-31T23:08:30.157Z,100413.81
2022-12-31T23:11:14.926Z,100378.53
2022-12-31T23:14:18.411Z,100417.34
2022-12-31T23:17:31.209Z,100394.56
2022-12-31T23:20:37.979Z,100392.97
2022-12-31T23:23:23.105Z,100384.94
2022-12-31T23:26:08.025Z,100377.75
2022-12-31T23:28:52.793Z,100378.50
2022-12-31T23:31:38.140Z,100381.72
2022-12-31T23:34:22.980Z,100385.34
2022-12-31T23:37:08.058Z,100369.72
2022-12-31T23:39:52.801Z,100375.38
2022-12-31T23:42:37.656Z,100373.38
2022-12-31T23:45:22.461Z,100378.97
2022-12-31T23:48:07.267Z,100374.94
2022-12-31T23:50:54.280Z,100358.56
2022-12-31T23:53:39.786Z,100360.09
2022-12-31T23:56:24.943Z,100384.09
2022-12-31T23:59:11.440Z,100360.09
